Terminal Aerodrome Forecast
Issued by NWS

Home | Current Version | Previous Version | Text Only | Print | Product List | Glossary On
Versions: 1 2 3 4 5 6 7 8 9 10 11 12 13 14 15 16
000
FTUS41 KBOX 282339
TAFBED
TAF
KBED 282339Z 2900/2924 00000KT P6SM BKN090 BKN250
     FM290200 23004KT P6SM SCT050
     FM290500 00000KT P6SM SCT200
     FM290900 VRB03KT 5SM BR SCT130
     FM291100 02004KT 5SM BR BKN015
     FM291200 02005KT 5SM BR BKN003
     FM291500 04006KT P6SM BKN040
     FM292200 07006KT P6SM SCT100=

USA.gov is the U.S. government's official web portal to all federal, state and local government web resources and services.